Time;durP1;ratioP1;P1;durP2;ratioP2;P2;SDS_P1;SDS_P2;PMS_P1;PMS_P2;Temp;Humidity;BMP_temperature;BMP_pressure;BME280_temperature;BME280_humidity;BME280_pressure;Samples;Min_cycle;Max_cycle;Signal;HPM_P1;HPM_P2
2022/11/17 00:01:07;;;;;;;39.45;25.70;;;;;;;9.95;74.33;93638.31;5090079;28;20035;-72
2022/11/17 00:03:33;;;;;;;42.65;25.95;;;;;;;9.58;75.47;93633.31;5072919;28;20119;-72
2022/11/17 00:06:03;;;;;;;37.33;23.00;;;;;;;9.42;76.61;93625.38;5090010;28;20115;-72
2022/11/17 00:08:28;;;;;;;35.97;22.47;;;;;;;9.42;76.60;93615.03;5073330;28;20048;-73
2022/11/17 00:10:54;;;;;;;35.60;22.95;;;;;;;9.26;76.72;93590.59;5056042;28;20090;-72
2022/11/17 00:16:03;;;;;;;37.67;23.73;;;;;;;9.26;77.29;93597.56;5090460;28;20063;-73
2022/11/17 00:21:20;;;;;;;40.17;23.67;;;;;;;9.10;77.93;93598.22;5090000;28;20043;-72
2022/11/17 00:23:45;;;;;;;37.97;24.13;;;;;;;9.20;77.65;93603.34;5089375;28;20024;-72
2022/11/17 00:27:00;;;;;;;39.42;23.58;;;;;;;9.21;77.67;93603.19;5096899;28;20035;-72
2022/11/17 00:29:22;;;;;;;;;;;;;;;9.03;78.12;93579.88;5109669;28;20028;-72
2022/11/17 00:34:32;;;;;;;35.58;23.23;;;;;;;8.74;79.01;93564.53;5104521;28;20038;-72
2022/11/17 00:40:19;;;;;;;37.55;23.52;;;;;;;8.68;79.41;93596.97;5131911;28;20416;-72
2022/11/17 00:42:44;;;;;;;34.85;22.20;;;;;;;8.65;79.54;93599.06;5113405;28;20023;-72
2022/11/17 00:45:10;;;;;;;36.17;23.33;;;;;;;8.37;80.10;93567.97;5131403;27;20030;-72
2022/11/17 00:47:35;;;;;;;30.98;21.92;;;;;;;8.64;80.19;93595.66;5131574;27;20035;-72
2022/11/17 00:50:00;;;;;;;39.10;22.95;;;;;;;8.64;80.06;93589.69;5130200;28;20027;-73
2022/11/17 00:52:26;;;;;;;37.63;23.42;;;;;;;8.41;79.73;93561.59;5116536;27;20478;-72
2022/11/17 00:54:51;;;;;;;33.30;21.45;;;;;;;8.54;80.11;93578.53;5109648;28;20554;-72
2022/11/17 00:57:17;;;;;;;32.05;20.80;;;;;;;8.27;80.59;93583.56;5093024;28;20405;-72
2022/11/17 00:59:42;;;;;;;32.58;21.58;;;;;;;8.41;80.28;93587.47;5092630;28;20069;-72
2022/11/17 01:02:08;;;;;;;35.08;22.25;;;;;;;8.10;81.88;93566.19;5109896;28;20077;-72
2022/11/17 01:04:33;;;;;;;32.75;20.58;;;;;;;8.10;82.74;93558.41;5109592;28;20504;-72
2022/11/17 01:06:58;;;;;;;30.95;19.35;;;;;;;8.26;82.40;93563.00;5092839;28;20141;-72
2022/11/17 01:09:24;;;;;;;30.38;19.52;;;;;;;8.36;81.67;93545.66;5110792;28;20028;-72
2022/11/17 01:11:50;;;;;;;31.58;19.98;;;;;;;8.45;81.49;93555.16;5092478;28;20067;-72
2022/11/17 01:14:18;;;;;;;28.80;19.90;;;;;;;8.37;81.62;93567.16;5092672;28;20220;-72
2022/11/17 01:16:43;;;;;;;30.00;19.20;;;;;;;8.38;81.34;93572.19;5092989;28;20075;-72
2022/11/17 01:19:09;;;;;;;35.25;21.83;;;;;;;8.36;81.49;93563.75;5092594;28;20104;-72
2022/11/17 01:21:35;;;;;;;31.23;20.48;;;;;;;8.41;81.42;93584.88;5092687;28;20449;-72
2022/11/17 01:24:00;;;;;;;29.25;20.80;;;;;;;8.46;81.13;93589.63;5110698;28;20057;-72
2022/11/17 01:26:28;;;;;;;30.75;20.20;;;;;;;8.50;81.01;93571.06;5109421;28;20497;-72
2022/11/17 01:28:53;;;;;;;30.55;20.70;;;;;;;8.43;81.21;93551.09;5109371;28;20030;-73
2022/11/17 01:31:24;;;;;;;31.98;20.33;;;;;;;8.33;81.89;93560.63;5092908;28;20027;-73
2022/11/17 01:33:49;;;;;;;31.63;20.35;;;;;;;8.37;81.80;93565.38;5096163;28;20106;-73
2022/11/17 01:36:23;;;;;;;32.67;21.40;;;;;;;8.38;81.71;93558.44;5096142;28;20119;-73
2022/11/17 01:38:48;;;;;;;29.92;20.17;;;;;;;8.32;81.62;93549.47;5114635;28;20047;-73
2022/11/17 01:41:19;;;;;;;30.83;20.33;;;;;;;8.32;81.49;93584.88;5113026;28;20455;-73
2022/11/17 01:43:45;;;;;;;26.85;19.25;;;;;;;8.12;81.70;93553.13;5095889;28;20198;-73
2022/11/17 01:46:30;;;;;;;30.73;19.83;;;;;;;8.24;82.07;93557.13;5112956;28;20074;-73
2022/11/17 01:49:06;;;;;;;31.13;19.38;;;;;;;8.01;81.98;93536.81;5112879;28;20024;-73
2022/11/17 01:51:32;;;;;;;26.75;17.95;;;;;;;8.10;82.29;93549.84;5088617;28;20495;-73
2022/11/17 01:53:58;;;;;;;25.13;17.60;;;;;;;8.06;81.93;93568.25;5075479;28;20024;-73
2022/11/17 01:56:26;;;;;;;27.70;17.42;;;;;;;8.03;82.74;93534.09;5092524;28;20035;-73
2022/11/17 01:58:56;;;;;;;24.33;17.25;;;;;;;7.98;83.25;93551.81;5075586;28;20028;-73
2022/11/17 02:01:21;;;;;;;25.92;16.50;;;;;;;8.20;82.71;93545.47;5075868;28;20032;-73
2022/11/17 02:03:47;;;;;;;23.95;16.23;;;;;;;8.23;82.76;93550.34;5092143;28;20031;-73
2022/11/17 02:06:16;;;;;;;24.92;16.73;;;;;;;8.28;82.03;93545.56;5058613;28;20481;-73
2022/11/17 02:08:42;;;;;;;25.20;16.20;;;;;;;8.34;81.60;93528.66;5058642;28;20459;-73
2022/11/17 02:11:11;;;;;;;21.67;15.65;;;;;;;8.37;81.29;93546.47;5075187;28;20506;-73
2022/11/17 02:13:36;;;;;;;23.92;15.27;;;;;;;8.33;80.89;93540.78;5075282;28;20501;-73
2022/11/17 02:16:02;;;;;;;21.67;15.02;;;;;;;8.37;80.75;93538.69;5058411;28;20044;-73
2022/11/17 02:18:27;;;;;;;22.67;14.20;;;;;;;8.30;80.52;93530.69;5093184;28;20080;-73
2022/11/17 02:20:56;;;;;;;22.35;15.00;;;;;;;8.34;80.73;93511.34;5075042;28;20085;-73
2022/11/17 02:23:33;;;;;;;24.23;14.60;;;;;;;8.27;81.33;93502.50;5093126;28;20052;-73
2022/11/17 02:26:37;;;;;;;23.50;15.30;;;;;;;8.24;81.65;93497.63;5091932;28;20123;-73
2022/11/17 02:29:24;;;;;;;25.50;16.48;;;;;;;8.31;81.81;93506.47;5050442;28;20079;-73
2022/11/17 02:31:54;;;;;;;23.65;16.70;;;;;;;8.22;81.87;93528.03;5072978;28;20063;-73
2022/11/17 02:34:45;;;;;;;25.13;16.20;;;;;;;8.29;81.79;93529.06;5091774;28;20058;-73
2022/11/17 02:37:26;;;;;;;25.02;17.02;;;;;;;8.34;81.52;93521.69;5093161;28;20040;-73
2022/11/17 02:39:59;;;;;;;22.38;16.00;;;;;;;8.19;82.02;93505.00;5059338;28;20028;-73
2022/11/17 02:45:17;;;;;;;24.95;15.48;;;;;;;8.18;82.81;93506.78;5047202;28;20085;-73
2022/11/17 02:47:42;;;;;;;21.23;14.95;;;;;;;8.22;82.23;93496.97;5091355;28;20491;-73
2022/11/17 02:50:08;;;;;;;21.33;14.05;;;;;;;8.23;81.66;93486.47;5092334;28;20031;-73
2022/11/17 02:52:33;;;;;;;21.65;14.25;;;;;;;8.38;81.75;93515.25;5090505;28;20038;-73
2022/11/17 02:55:00;;;;;;;22.05;14.82;;;;;;;8.27;81.58;93515.44;5094527;28;20027;-73
2022/11/17 02:57:29;;;;;;;23.02;14.73;;;;;;;8.27;81.98;93512.88;5094688;28;20526;-73
2022/11/17 02:59:55;;;;;;;20.42;14.02;;;;;;;8.18;82.92;93513.75;5111400;28;20023;-73
2022/11/17 03:02:56;;;;;;;21.00;13.73;;;;;;;8.15;83.72;93512.25;5111684;28;20085;-73
2022/11/17 03:05:37;;;;;;;19.50;13.33;;;;;;;8.20;83.68;93493.72;5097163;28;20015;-73
2022/11/17 03:08:02;;;;;;;19.20;12.43;;;;;;;8.17;83.67;93494.00;5111415;28;20060;-73
2022/11/17 03:10:32;;;;;;;18.63;12.20;;;;;;;8.33;83.14;93507.13;5112260;28;20396;-73
2022/11/17 03:13:09;;;;;;;20.83;13.10;;;;;;;8.25;82.44;93486.34;5112388;28;20024;-73
2022/11/17 03:15:54;;;;;;;24.50;15.80;;;;;;;8.47;82.45;93511.03;5094531;28;20058;-73
2022/11/17 03:18:34;;;;;;;20.75;13.30;;;;;;;8.29;83.44;93503.19;5112378;28;20038;-73
2022/11/17 03:21:24;;;;;;;20.35;12.73;;;;;;;8.40;82.89;93497.84;5094083;28;20156;-73
2022/11/17 03:24:00;;;;;;;19.00;12.60;;;;;;;8.48;82.53;93507.47;5110974;28;20133;-73
2022/11/17 03:26:34;;;;;;;16.40;11.05;;;;;;;8.50;82.56;93505.56;5111105;28;20463;-73
2022/11/17 03:29:00;;;;;;;20.67;11.77;;;;;;;8.58;81.97;93512.56;5077878;28;20478;-73
2022/11/17 03:31:26;;;;;;;16.05;10.90;;;;;;;8.46;81.94;93494.66;5094117;28;20063;-73
2022/11/17 03:33:51;;;;;;;16.70;11.73;;;;;;;8.43;82.14;93505.31;5093678;28;20469;-73
2022/11/17 03:36:20;;;;;;;17.58;10.88;;;;;;;8.54;82.63;93491.34;5094002;28;20035;-74
2022/11/17 03:38:50;;;;;;;19.25;12.38;;;;;;;8.52;81.80;93482.09;5094043;28;20032;-73
2022/11/17 03:41:16;;;;;;;20.27;11.83;;;;;;;8.58;81.72;93484.94;5094148;28;20077;-73
2022/11/17 03:43:42;;;;;;;15.52;10.20;;;;;;;8.57;81.94;93480.69;5093631;28;20035;-73
2022/11/17 03:46:13;;;;;;;17.58;11.48;;;;;;;8.62;81.66;93498.38;5076788;28;20031;-73
2022/11/17 03:48:49;;;;;;;18.88;11.82;;;;;;;8.59;81.84;93507.25;5093681;28;20446;-73
2022/11/17 03:51:23;;;;;;;18.85;11.13;;;;;;;8.67;81.70;93511.72;5088529;28;20040;-73
2022/11/17 03:53:49;;;;;;;22.73;15.65;;;;;;;8.69;81.39;93514.94;5089645;28;20110;-73
2022/11/17 03:56:37;;;;;;;23.73;16.08;;;;;;;8.49;82.58;93509.91;5073205;28;20036;-73
2022/11/17 03:59:15;;;;;;;20.85;13.93;;;;;;;8.52;82.51;93497.63;5073379;28;20024;-73
2022/11/17 04:01:40;;;;;;;21.48;13.00;;;;;;;8.49;82.58;93484.00;5090326;28;20062;-72
2022/11/17 04:04:06;;;;;;;15.88;11.68;;;;;;;8.70;82.00;93506.25;5073008;28;20486;-73
2022/11/17 04:06:31;;;;;;;17.40;10.20;;;;;;;8.75;82.37;93504.03;5073283;28;20044;-73
2022/11/17 04:08:57;;;;;;;13.88;9.85;;;;;;;8.82;81.94;93497.28;5089761;28;20024;-73
2022/11/17 04:16:52;;;;;;;14.98;10.18;;;;;;;8.83;82.33;93498.09;5090146;28;20051;-72
2022/11/17 04:19:18;;;;;;;15.35;9.57;;;;;;;8.90;82.12;93507.72;5090924;28;20028;-73
2022/11/17 04:21:43;;;;;;;18.17;10.68;;;;;;;8.90;82.08;93497.34;5091333;28;20032;-73
2022/11/17 04:24:09;;;;;;;16.45;11.07;;;;;;;8.80;82.81;93486.25;5090848;28;20025;-73
2022/11/17 04:29:18;;;;;;;14.73;10.43;;;;;;;8.86;82.06;93483.09;5089830;28;20047;-73
2022/11/17 04:31:44;;;;;;;14.18;9.80;;;;;;;8.88;82.22;93481.13;5091197;28;20032;-73
2022/11/17 04:34:09;;;;;;;17.00;10.80;;;;;;;8.89;82.13;93490.56;5072558;28;20028;-73
2022/11/17 04:36:45;;;;;;;14.35;10.10;;;;;;;8.80;82.09;93472.50;5089512;28;20043;-73
2022/11/17 04:39:14;;;;;;;14.63;10.93;;;;;;;8.86;82.25;93454.59;5089652;28;20028;-73
2022/11/17 04:42:00;;;;;;;16.50;11.05;;;;;;;8.85;82.44;93463.31;5089686;28;20028;-73
2022/11/17 04:44:27;;;;;;;18.83;13.20;;;;;;;8.84;82.80;93461.69;5089761;28;20024;-73
2022/11/17 04:46:53;;;;;;;18.42;13.15;;;;;;;8.91;82.32;93473.09;5072975;28;20050;-73
2022/11/17 04:49:19;;;;;;;21.40;12.60;;;;;;;8.84;82.85;93468.66;5072561;28;20047;-73
2022/11/17 04:51:44;;;;;;;16.83;11.13;;;;;;;8.82;83.40;93452.44;5082039;28;20035;-73
2022/11/17 04:54:11;;;;;;;56.50;41.83;;;;;;;8.76;83.32;93442.69;5109738;28;20092;-73
2022/11/17 04:56:36;;;;;;;31.77;24.45;;;;;;;8.92;83.02;93461.75;5093052;28;20103;-72
2022/11/17 04:59:02;;;;;;;26.52;17.70;;;;;;;8.94;82.59;93465.03;5092834;28;20505;-72
2022/11/17 05:01:28;;;;;;;20.00;14.18;;;;;;;8.93;82.63;93459.97;5111269;28;20074;-73
2022/11/17 05:03:54;;;;;;;20.85;13.95;;;;;;;8.88;83.24;93457.81;5092558;28;20550;-72
2022/11/17 05:06:36;;;;;;;21.80;14.85;;;;;;;8.90;83.19;93450.72;5111783;28;20035;-73
2022/11/17 05:09:07;;;;;;;26.23;20.00;;;;;;;8.90;82.95;93440.38;5113755;28;20055;-73
2022/11/17 05:14:18;;;;;;;26.80;20.05;;;;;;;8.97;82.57;93455.31;5113760;28;20078;-73
2022/11/17 05:19:28;;;;;;;29.88;20.42;;;;;;;8.88;82.64;93437.13;5110531;28;20108;-73
2022/11/17 05:21:53;;;;;;;25.60;18.45;;;;;;;9.01;82.29;93433.34;5096451;28;20028;-73
2022/11/17 05:24:19;;;;;;;26.17;17.85;;;;;;;9.05;82.16;93439.81;5113340;28;20031;-73
2022/11/17 05:26:45;;;;;;;27.02;18.38;;;;;;;9.05;82.16;93434.66;5096565;28;20042;-73
2022/11/17 05:29:12;;;;;;;27.98;21.90;;;;;;;9.07;81.94;93424.94;5113282;28;20453;-73
2022/11/17 05:31:37;;;;;;;26.00;18.95;;;;;;;9.12;81.72;93425.31;5128824;27;20023;-73
2022/11/17 05:34:03;;;;;;;20.15;15.45;;;;;;;9.00;82.14;93413.56;5116499;27;20075;-72
2022/11/17 05:36:29;;;;;;;51.38;44.67;;;;;;;8.79;82.94;93396.59;5103705;27;20074;-72
2022/11/17 05:38:54;;;;;;;31.40;25.05;;;;;;;8.93;82.57;93401.22;5087316;28;20486;-72
2022/11/17 05:41:20;;;;;;;25.58;19.73;;;;;;;8.90;82.67;93400.72;5102344;27;20024;-73
2022/11/17 05:43:46;;;;;;;26.77;21.85;;;;;;;8.91;82.41;93410.09;5095754;28;20023;-73
2022/11/17 05:46:11;;;;;;;28.63;22.45;;;;;;;8.99;82.27;93432.66;5079002;28;20038;-72
2022/11/17 05:48:38;;;;;;;27.25;21.67;;;;;;;9.02;82.08;93432.34;5102118;28;20410;-72
2022/11/17 05:51:03;;;;;;;30.55;23.15;;;;;;;9.01;82.13;93428.16;5082099;28;20443;-73
2022/11/17 05:53:29;;;;;;;28.10;22.13;;;;;;;9.08;81.77;93434.34;5078679;28;20039;-73
2022/11/17 05:56:09;;;;;;;30.40;19.83;;;;;;;9.09;81.92;93443.75;5094588;28;20111;-72
2022/11/17 05:58:35;;;;;;;23.52;16.95;;;;;;;9.00;82.04;93440.31;5092278;28;20028;-73
2022/11/17 06:01:01;;;;;;;26.33;18.65;;;;;;;8.98;82.38;93447.41;5082162;28;20539;-73
2022/11/17 06:03:32;;;;;;;25.27;18.27;;;;;;;8.99;82.26;93451.59;5103547;28;20031;-73
2022/11/17 06:05:58;;;;;;;23.42;15.88;;;;;;;8.92;82.62;93432.47;5087367;28;20185;-73
2022/11/17 06:08:23;;;;;;;22.33;15.02;;;;;;;8.96;82.97;93449.31;5104354;27;20541;-73
2022/11/17 06:10:49;;;;;;;21.92;15.10;;;;;;;9.04;82.67;93440.81;5095683;28;20059;-72
2022/11/17 06:13:14;;;;;;;22.65;15.63;;;;;;;9.02;82.71;93442.72;5097628;28;20085;-72
2022/11/17 06:15:40;;;;;;;21.95;14.98;;;;;;;9.05;82.53;93455.38;5112248;28;20485;-72
2022/11/17 06:18:11;;;;;;;24.92;15.57;;;;;;;9.11;82.22;93457.34;5093761;28;20425;-72
2022/11/17 06:20:38;;;;;;;20.27;13.70;;;;;;;9.13;82.12;93465.78;5093035;28;20497;-72
2022/11/17 06:23:04;;;;;;;23.92;15.20;;;;;;;9.07;82.17;93449.06;5094207;28;20028;-72
2022/11/17 06:25:31;;;;;;;22.50;15.02;;;;;;;9.11;82.51;93465.13;5090973;28;20039;-72
2022/11/17 06:27:57;;;;;;;20.40;14.40;;;;;;;9.11;82.60;93462.53;5102227;28;20110;-72
2022/11/17 06:30:22;;;;;;;21.30;14.70;;;;;;;9.11;82.33;93473.72;5091809;28;20039;-72
2022/11/17 06:32:48;;;;;;;19.80;14.20;;;;;;;9.10;82.71;93472.09;5108710;28;20035;-72
2022/11/17 06:35:15;;;;;;;26.13;17.85;;;;;;;9.00;82.91;93473.13;5110937;28;20084;-72
2022/11/17 06:37:41;;;;;;;23.75;17.75;;;;;;;9.11;82.59;93499.63;5110522;28;20619;-73
2022/11/17 06:40:07;;;;;;;24.70;17.55;;;;;;;9.13;82.47;93513.25;5095668;28;20102;-72
2022/11/17 06:45:16;;;;;;;23.77;16.63;;;;;;;9.16;82.46;93541.47;5095370;28;20031;-72
2022/11/17 06:47:42;;;;;;;27.02;17.98;;;;;;;9.03;82.53;93550.56;5084587;28;20421;-73
2022/11/17 06:50:08;;;;;;;24.40;17.80;;;;;;;9.10;82.82;93575.72;5088648;28;20057;-72
2022/11/17 06:52:33;;;;;;;29.08;18.98;;;;;;;9.05;82.94;93575.34;5088921;28;20019;-72
2022/11/17 06:54:59;;;;;;;23.77;17.55;;;;;;;9.13;82.79;93601.31;5090046;28;20020;-72
2022/11/17 06:57:24;;;;;;;23.98;17.67;;;;;;;9.16;82.69;93615.75;5106845;28;20558;-72
2022/11/17 06:59:51;;;;;;;37.67;26.20;;;;;;;9.15;82.96;93616.75;5095600;28;20454;-74
2022/11/17 07:02:17;;;;;;;27.08;20.08;;;;;;;9.14;83.11;93643.63;5101967;27;20429;-71
2022/11/17 07:04:42;;;;;;;34.17;27.15;;;;;;;9.13;82.98;93683.44;5095439;27;20036;-72
2022/11/17 07:07:08;;;;;;;29.10;20.90;;;;;;;9.15;82.88;93743.69;5084089;28;20036;-72
2022/11/17 07:09:33;;;;;;;26.55;19.25;;;;;;;9.07;83.39;93694.38;5081851;28;20031;-72
2022/11/17 07:11:58;;;;;;;22.33;14.88;;;;;;;9.15;83.09;93689.28;5111997;27;20584;-72
2022/11/17 07:14:24;;;;;;;16.38;11.73;;;;;;;9.10;83.62;93670.75;5108944;28;20486;-72
2022/11/17 07:16:49;;;;;;;11.52;7.68;;;;;;;9.03;83.40;93649.00;5108827;28;20425;-72
2022/11/17 07:19:15;;;;;;;11.30;7.75;;;;;;;9.15;82.62;93634.88;5109282;28;20046;-72
2022/11/17 07:21:40;;;;;;;7.22;5.28;;;;;;;9.15;82.17;93620.13;5110626;28;20043;-72
2022/11/17 07:24:06;;;;;;;7.80;4.45;;;;;;;9.13;81.33;93600.50;5110284;28;20020;-72
2022/11/17 07:26:31;;;;;;;3.75;2.70;;;;;;;9.06;81.29;93596.91;5092744;28;20072;-72
2022/11/17 07:28:57;;;;;;;3.10;2.25;;;;;;;9.03;81.96;93589.44;5108082;28;20020;-72
2022/11/17 07:31:23;;;;;;;2.78;1.70;;;;;;;9.06;80.63;93569.22;5091753;28;20036;-72
2022/11/17 07:33:49;;;;;;;3.22;2.00;;;;;;;9.11;80.16;93546.28;5108614;28;20032;-72
2022/11/17 07:36:15;;;;;;;14.40;5.25;;;;;;;9.14;80.08;93535.59;5091550;28;20039;-72
2022/11/17 07:38:40;;;;;;;3.22;1.63;;;;;;;9.33;78.51;93520.84;5092151;28;20031;-72
2022/11/17 07:41:06;;;;;;;3.70;2.05;;;;;;;9.32;79.36;93488.94;5108947;28;20433;-72
2022/11/17 07:43:32;;;;;;;6.80;4.20;;;;;;;9.42;79.39;93493.19;5093619;28;20051;-72
2022/11/17 07:45:58;;;;;;;4.43;2.38;;;;;;;9.49;79.97;93470.91;5110682;28;20027;-72
2022/11/17 07:48:23;;;;;;;5.88;2.60;;;;;;;9.62;80.15;93486.84;5076595;28;20042;-72
2022/11/17 07:50:49;;;;;;;6.05;3.50;;;;;;;9.68;79.03;93517.34;5093672;28;20032;-72
2022/11/17 07:53:14;;;;;;;9.60;8.18;;;;;;;9.44;79.05;93519.78;5111615;28;20462;-72
2022/11/17 07:55:40;;;;;;;2.67;2.10;;;;;;;9.34;76.66;93499.97;5110676;28;20467;-72
2022/11/17 07:58:05;;;;;;;3.17;2.25;;;;;;;9.34;79.75;93484.41;5093513;28;20047;-72
2022/11/17 08:00:32;;;;;;;1.45;0.80;;;;;;;9.23;79.67;93489.03;5111697;28;20074;-72
2022/11/17 08:03:02;;;;;;;1.70;1.00;;;;;;;9.32;78.19;93475.16;5110326;28;20109;-72
2022/11/17 08:05:29;;;;;;;5.70;3.05;;;;;;;9.56;75.71;93470.13;5110465;28;20039;-72
2022/11/17 08:07:55;;;;;;;2.42;1.00;;;;;;;9.85;73.52;93461.19;5093495;28;20031;-72
2022/11/17 08:10:21;;;;;;;3.97;1.00;;;;;;;10.04;74.54;93475.72;5093435;28;20049;-72
2022/11/17 08:12:49;;;;;;;1.20;0.60;;;;;;;10.23;72.70;93506.59;5110244;28;20509;-72
2022/11/17 08:15:15;;;;;;;3.97;1.98;;;;;;;10.45;70.81;93514.84;5110133;28;20038;-72
2022/11/17 08:17:41;;;;;;;5.72;2.70;;;;;;;10.28;73.14;93509.59;5111404;28;20027;-72
2022/11/17 08:20:07;;;;;;;3.85;2.20;;;;;;;10.54;72.94;93552.00;5111229;28;20497;-72
2022/11/17 08:22:32;;;;;;;5.68;3.70;;;;;;;10.57;74.55;93568.09;5111283;28;20102;-73
2022/11/17 08:24:58;;;;;;;6.47;3.22;;;;;;;10.61;73.67;93571.16;5110100;28;20035;-73
2022/11/17 08:27:24;;;;;;;4.63;3.00;;;;;;;10.69;73.91;93591.97;5111775;28;20035;-72
2022/11/17 08:29:49;;;;;;;5.28;3.15;;;;;;;10.71;73.71;93584.84;5111247;28;20023;-72
2022/11/17 08:32:15;;;;;;;5.43;3.42;;;;;;;10.63;75.66;93588.22;5076463;28;20043;-72
2022/11/17 08:34:40;;;;;;;6.55;4.20;;;;;;;10.47;75.76;93585.56;5111127;28;20248;-72
2022/11/17 08:37:06;;;;;;;4.25;3.00;;;;;;;10.26;75.80;93571.19;5093125;28;20065;-72
2022/11/17 08:39:31;;;;;;;6.90;3.25;;;;;;;10.37;76.66;93582.28;5111102;28;20474;-73
2022/11/17 08:41:57;;;;;;;6.65;4.50;;;;;;;10.51;75.98;93605.06;5113446;28;20038;-72
2022/11/17 08:44:22;;;;;;;5.95;4.53;;;;;;;10.54;76.43;93609.13;5114156;28;20024;-72
2022/11/17 08:46:48;;;;;;;7.95;4.47;;;;;;;10.49;77.55;93592.22;5115683;28;20040;-72
2022/11/17 08:49:14;;;;;;;10.13;7.90;;;;;;;10.56;77.01;93610.63;5114027;28;20036;-72
2022/11/17 08:51:39;;;;;;;10.23;8.40;;;;;;;10.56;77.28;93604.59;5115591;28;20462;-72
2022/11/17 08:54:04;;;;;;;10.70;7.15;;;;;;;10.53;78.16;93590.16;5113927;28;20081;-72
2022/11/17 08:56:30;;;;;;;9.23;6.60;;;;;;;10.58;78.01;93608.66;5115476;28;20055;-72
2022/11/17 08:58:55;;;;;;;9.95;7.18;;;;;;;10.62;78.21;93591.81;5115377;28;20023;-72
2022/11/17 09:01:21;;;;;;;9.07;5.70;;;;;;;10.46;80.09;93569.19;5113818;28;20032;-72
2022/11/17 09:03:46;;;;;;;6.50;5.10;;;;;;;10.59;79.62;93594.72;5113667;28;20024;-72
2022/11/17 09:06:12;;;;;;;7.50;5.07;;;;;;;10.68;79.26;93593.78;5113890;28;20031;-72
2022/11/17 09:08:38;;;;;;;23.83;15.77;;;;;;;10.65;79.50;93591.50;5113697;28;20020;-72
2022/11/17 09:11:08;;;;;;;16.73;11.18;;;;;;;10.68;79.62;93572.19;5114796;28;20058;-72
2022/11/17 09:13:33;;;;;;;9.25;6.18;;;;;;;10.64;79.37;93589.88;5096733;28;20027;-72
2022/11/17 09:16:01;;;;;;;10.88;6.80;;;;;;;10.72;78.69;93586.47;5113624;28;20027;-72
2022/11/17 09:18:26;;;;;;;9.35;6.70;;;;;;;10.84;78.34;93587.00;5113532;28;20077;-72
2022/11/17 09:20:52;;;;;;;8.18;5.93;;;;;;;10.93;77.92;93594.66;5114859;28;20427;-72
2022/11/17 09:23:17;;;;;;;9.15;5.85;;;;;;;10.90;78.15;93568.19;5114642;28;20036;-72
2022/11/17 09:25:43;;;;;;;6.30;4.53;;;;;;;10.79;78.32;93587.47;5113434;28;20035;-72
2022/11/17 09:28:08;;;;;;;6.40;4.22;;;;;;;10.64;76.68;93581.25;5114567;28;20106;-72
2022/11/17 09:30:35;;;;;;;7.60;3.45;;;;;;;10.74;75.82;93576.75;5096265;28;20027;-72
2022/11/17 09:33:00;;;;;;;5.05;3.40;;;;;;;10.84;75.77;93590.41;5113190;28;20107;-72
2022/11/17 09:35:26;;;;;;;6.40;3.30;;;;;;;10.95;75.56;93576.31;5113250;28;20035;-72
2022/11/17 09:37:51;;;;;;;8.85;5.90;;;;;;;11.06;75.99;93589.00;5113142;28;20035;-72
2022/11/17 09:40:18;;;;;;;8.02;5.22;;;;;;;11.07;76.96;93587.22;5079281;28;20039;-72
2022/11/17 09:42:43;;;;;;;5.20;3.53;;;;;;;10.98;76.16;93568.22;5096086;28;20028;-73
2022/11/17 09:45:32;;;;;;;5.07;3.10;;;;;;;10.94;76.72;93561.69;5112900;28;20024;-73
2022/11/17 09:48:04;;;;;;;8.98;3.83;;;;;;;10.98;76.01;93557.81;5096532;28;20039;-72
2022/11/17 09:50:37;;;;;;;6.75;4.40;;;;;;;11.21;75.41;93559.78;5096872;28;20032;-72
2022/11/17 09:53:15;;;;;;;6.10;3.55;;;;;;;11.36;75.11;93560.75;5094659;28;20031;-73
2022/11/17 09:55:40;;;;;;;8.48;4.70;;;;;;;11.42;75.23;93560.09;5114145;28;20078;-73
2022/11/17 09:58:10;;;;;;;10.57;5.93;;;;;;;11.55;75.24;93560.44;5113966;28;20055;-73
2022/11/17 10:00:36;;;;;;;11.23;6.10;;;;;;;11.44;75.56;93539.97;5114189;28;20092;-73
2022/11/17 10:03:01;;;;;;;8.45;5.40;;;;;;;11.50;75.47;93541.09;5095735;28;20031;-73
2022/11/17 10:05:28;;;;;;;10.32;5.53;;;;;;;11.61;75.75;93551.97;5112705;28;20405;-73
2022/11/17 10:07:55;;;;;;;11.23;6.15;;;;;;;11.68;76.10;93557.34;5078654;28;20024;-73
2022/11/17 10:10:24;;;;;;;13.63;7.30;;;;;;;11.80;75.95;93552.63;5078595;28;20055;-73
2022/11/17 10:12:52;;;;;;;11.57;7.07;;;;;;;11.91;75.98;93560.09;5078833;28;20207;-73
2022/11/17 10:15:21;;;;;;;12.30;7.18;;;;;;;11.95;75.56;93556.22;5095627;28;20057;-73
2022/11/17 10:17:47;;;;;;;11.82;8.15;;;;;;;12.01;75.54;93562.53;5095652;28;20032;-73
2022/11/17 10:20:17;;;;;;;12.50;7.55;;;;;;;12.07;74.89;93559.28;5113448;28;20500;-73
2022/11/17 10:22:43;;;;;;;10.93;6.60;;;;;;;11.99;74.44;93528.88;5113544;28;20023;-73
2022/11/17 10:25:21;;;;;;;10.75;6.50;;;;;;;12.14;74.68;93559.41;5095215;28;20081;-73
2022/11/17 10:27:53;;;;;;;9.60;6.47;;;;;;;12.13;75.14;93548.19;5112109;28;20027;-73
2022/11/17 10:30:18;;;;;;;9.10;6.35;;;;;;;12.23;74.94;93556.63;5112204;28;20028;-73
2022/11/17 10:32:51;;;;;;;9.35;6.53;;;;;;;12.33;74.55;93548.59;5113187;28;20028;-73
2022/11/17 10:35:18;;;;;;;10.35;6.53;;;;;;;12.40;74.29;93546.97;5095603;28;20024;-73
2022/11/17 10:38:10;;;;;;;10.35;7.93;;;;;;;12.49;74.34;93545.94;5112001;28;20028;-73
2022/11/17 10:40:38;;;;;;;9.95;8.07;;;;;;;12.58;74.12;93546.72;5105389;28;20071;-73
2022/11/17 10:43:17;;;;;;;12.75;8.93;;;;;;;12.61;73.92;93529.94;5113053;28;20039;-73
2022/11/17 10:46:06;;;;;;;12.52;8.50;;;;;;;12.66;73.81;93543.28;5113160;28;20031;-73
2022/11/17 10:48:36;;;;;;;12.10;8.95;;;;;;;12.73;73.73;93537.22;5103457;28;20240;-73
2022/11/17 10:51:09;;;;;;;9.05;6.18;;;;;;;12.80;73.27;93539.94;5077975;28;20035;-73
2022/11/17 10:53:40;;;;;;;6.97;4.05;;;;;;;12.79;72.03;93538.31;5095365;28;20039;-73
2022/11/17 10:56:18;;;;;;;6.35;4.32;;;;;;;12.77;71.98;93545.50;5094839;28;20043;-73
2022/11/17 10:59:08;;;;;;;6.38;4.53;;;;;;;12.75;71.19;93545.66;5111633;28;20480;-73
2022/11/17 11:01:38;;;;;;;6.43;4.32;;;;;;;12.85;71.10;93548.06;5113166;28;20046;-73
2022/11/17 11:04:05;;;;;;;5.72;3.70;;;;;;;12.67;70.79;93514.44;5112495;28;20023;-73
2022/11/17 11:06:31;;;;;;;5.70;3.67;;;;;;;12.94;70.82;93551.44;5077853;28;20035;-73
2022/11/17 11:09:06;;;;;;;6.05;3.83;;;;;;;12.99;71.80;93553.53;5094519;28;20099;-73
2022/11/17 11:11:44;;;;;;;8.00;5.40;;;;;;;13.01;71.50;93548.94;5095373;28;20055;-73
2022/11/17 11:14:31;;;;;;;7.60;4.97;;;;;;;13.02;71.53;93553.19;5111232;28;20034;-73
2022/11/17 11:16:56;;;;;;;11.82;7.07;;;;;;;13.00;71.13;93553.34;5112984;28;20043;-73
2022/11/17 11:19:22;;;;;;;16.35;9.27;;;;;;;13.01;70.89;93548.94;5112355;28;20401;-73
2022/11/17 11:22:15;;;;;;;14.20;7.85;;;;;;;13.00;70.81;93548.13;5094272;28;20043;-73
2022/11/17 11:25:04;;;;;;;14.27;7.65;;;;;;;12.85;70.44;93542.03;5110959;28;20059;-73
2022/11/17 11:28:23;;;;;;;14.27;6.93;;;;;;;12.97;70.10;93557.09;5111243;28;20035;-73
2022/11/17 11:30:52;;;;;;;10.88;5.80;;;;;;;13.01;70.35;93562.81;5052478;28;20044;-73
2022/11/17 11:33:32;;;;;;;14.23;7.05;;;;;;;13.07;70.09;93558.69;5109425;28;20035;-73
2022/11/17 11:36:06;;;;;;;21.13;11.52;;;;;;;13.12;69.92;93551.97;5094032;28;20032;-73
2022/11/17 11:38:49;;;;;;;22.52;13.48;;;;;;;13.16;69.83;93549.81;5111990;28;20039;-73
2022/11/17 11:41:20;;;;;;;20.63;11.73;;;;;;;13.17;69.71;93547.03;5110954;28;20088;-73
2022/11/17 11:44:00;;;;;;;11.50;6.68;;;;;;;13.19;68.94;93546.88;5111925;28;20035;-73
2022/11/17 11:46:38;;;;;;;6.53;5.03;;;;;;;13.21;68.20;93557.16;5112276;28;20111;-73
2022/11/17 11:49:31;;;;;;;6.82;4.53;;;;;;;13.16;68.16;93555.03;5110482;28;20412;-73
2022/11/17 11:51:57;;;;;;;5.85;3.85;;;;;;;13.11;68.18;93547.72;5092591;28;20105;-73
2022/11/17 11:54:44;;;;;;;7.22;4.35;;;;;;;13.18;68.49;93551.28;5110516;28;20027;-73
2022/11/17 11:57:13;;;;;;;9.02;3.80;;;;;;;13.13;68.32;93545.78;5112230;28;20031;-73
2022/11/17 12:00:00;;;;;;;7.35;4.47;;;;;;;13.22;67.93;93559.56;5093629;28;20386;-73
2022/11/17 12:02:48;;;;;;;6.53;4.03;;;;;;;13.24;68.24;93557.59;5096395;28;20409;-73
2022/11/17 12:05:35;;;;;;;5.95;3.72;;;;;;;13.22;68.17;93572.59;5105567;28;20043;-73
2022/11/17 12:08:18;;;;;;;5.45;3.50;;;;;;;13.13;68.12;93543.16;5111581;28;20070;-73
2022/11/17 12:10:47;;;;;;;4.88;3.35;;;;;;;13.15;67.61;93559.44;5094672;28;20063;-73